createdAt,value
2022-10-02T00:02:21.421Z,99651.91
2022-10-02T00:04:54.766Z,99649.22
2022-10-02T00:07:45.095Z,99639.66
2022-10-02T00:10:23.102Z,99650.56
2022-10-02T00:12:55.746Z,99656.38
2022-10-02T00:15:27.501Z,99642.56
2022-10-02T00:17:58.401Z,99647.66
2022-10-02T00:20:38.515Z,99651.09
2022-10-02T00:23:11.714Z,99651.22
2022-10-02T00:25:56.049Z,99647.81
2022-10-02T00:28:28.305Z,99645.84
2022-10-02T00:31:32.652Z,99668.34
2022-10-02T00:34:21.859Z,99664.34
2022-10-02T00:37:23.554Z,99669.50
2022-10-02T00:40:22.584Z,99660.19
2022-10-02T00:43:04.373Z,99662.59
2022-10-02T00:45:42.982Z,99660.41
2022-10-02T00:48:26.712Z,99670.47
2022-10-02T00:51:07.784Z,99654.47
2022-10-02T00:53:56.908Z,99651.41
2022-10-02T00:56:38.561Z,99646.44
2022-10-02T00:59:27.108Z,99635.59
2022-10-02T01:02:00.374Z,99642.56
2022-10-02T01:04:35.400Z,99633.25
2022-10-02T01:07:06.176Z,99647.19
2022-10-02T01:09:33.358Z,99634.78
2022-10-02T01:12:00.766Z,99639.13
2022-10-02T01:14:38.930Z,99644.84
2022-10-02T01:17:24.586Z,99648.22
2022-10-02T01:19:51.357Z,99642.47
2022-10-02T01:22:26.905Z,99660.50
2022-10-02T01:24:58.084Z,99670.38
2022-10-02T01:27:25.074Z,99671.09
2022-10-02T01:30:06.131Z,99665.53
2022-10-02T01:32:34.072Z,99660.81
2022-10-02T01:35:00.944Z,99655.66
2022-10-02T01:37:32.352Z,99661.66
2022-10-02T01:40:04.390Z,99671.75
2022-10-02T01:42:31.648Z,99673.84
2022-10-02T01:44:58.454Z,99670.63
2022-10-02T01:48:00.513Z,99672.59
2022-10-02T01:50:47.759Z,99676.66
2022-10-02T01:53:30.179Z,99675.81
2022-10-02T01:56:09.540Z,99679.31
2022-10-02T01:58:49.998Z,99687.97
2022-10-02T02:01:25.367Z,99673.59
2022-10-02T02:04:03.777Z,99681.53
2022-10-02T02:06:39.651Z,99684.19
2022-10-02T02:09:12.419Z,99689.13
2022-10-02T02:11:44.621Z,99674.03
2022-10-02T02:14:22.642Z,99675.72
2022-10-02T02:17:00.726Z,99662.63
2022-10-02T02:19:46.779Z,99662.31
2022-10-02T02:22:22.878Z,99677.16
2022-10-02T02:24:57.911Z,99675.47
2022-10-02T02:27:33.592Z,99670.03
2022-10-02T02:30:07.196Z,99671.00
2022-10-02T02:32:38.826Z,99680.78
2022-10-02T02:35:17.157Z,99682.44
2022-10-02T02:37:46.610Z,99675.47
2022-10-02T02:40:18.772Z,99676.28
2022-10-02T02:42:54.995Z,99661.66
2022-10-02T02:45:29.682Z,99674.63
2022-10-02T02:48:02.549Z,99679.09
2022-10-02T02:50:41.368Z,99677.66
2022-10-02T02:53:19.246Z,99683.53
2022-10-02T02:55:49.097Z,99678.53
2022-10-02T02:58:25.262Z,99665.63
2022-10-02T03:00:51.686Z,99667.22
2022-10-02T03:03:18.641Z,99654.78
2022-10-02T03:05:51.880Z,99650.03
2022-10-02T03:08:28.168Z,99638.88
2022-10-02T03:11:19.709Z,99638.59
2022-10-02T03:13:58.794Z,99644.63
2022-10-02T03:16:52.414Z,99639.44
2022-10-02T03:19:45.644Z,99647.28
2022-10-02T03:22:17.960Z,99653.41
2022-10-02T03:24:50.282Z,99644.88
2022-10-02T03:27:37.129Z,99645.84
2022-10-02T03:30:07.149Z,99669.31
2022-10-02T03:32:35.139Z,99672.56
2022-10-02T03:35:04.522Z,99662.06
2022-10-02T03:37:31.390Z,99663.75
2022-10-02T03:40:00.168Z,99663.75
2022-10-02T03:42:30.413Z,99668.47
2022-10-02T03:44:56.820Z,99660.38
2022-10-02T03:47:23.251Z,99659.31
2022-10-02T03:49:49.940Z,99654.25
2022-10-02T03:52:18.350Z,99656.91
2022-10-02T03:54:45.595Z,99667.50
2022-10-02T03:57:22.358Z,99654.50
2022-10-02T04:00:09.612Z,99658.59
2022-10-02T04:02:48.213Z,99657.63
2022-10-02T04:05:25.648Z,99666.25
2022-10-02T04:07:57.102Z,99669.75
2022-10-02T04:10:40.978Z,99656.75
2022-10-02T04:13:17.600Z,99655.94
2022-10-02T04:15:55.937Z,99647.28
2022-10-02T04:18:35.256Z,99663.59
2022-10-02T04:21:24.026Z,99660.94
2022-10-02T04:23:57.743Z,99660.94
2022-10-02T04:26:33.720Z,99654.00
2022-10-02T04:29:15.883Z,99661.53
2022-10-02T04:31:42.588Z,99661.94
2022-10-02T04:34:12.961Z,99667.94
2022-10-02T04:36:54.225Z,99660.94
2022-10-02T04:39:53.893Z,99666.25
2022-10-02T04:42:32.103Z,99661.81
2022-10-02T04:45:14.887Z,99666.13
2022-10-02T04:48:02.618Z,99661.81
2022-10-02T04:50:56.021Z,99659.97
2022-10-02T04:53:29.151Z,99650.34
2022-10-02T04:56:01.081Z,99665.03
2022-10-02T04:58:49.215Z,99657.63
2022-10-02T05:01:29.981Z,99661.25
2022-10-02T05:04:22.310Z,99674.41
2022-10-02T05:07:14.838Z,99668.25
2022-10-02T05:10:02.300Z,99659.44
2022-10-02T05:12:58.066Z,99662.81
2022-10-02T05:15:45.875Z,99666.56
2022-10-02T05:18:17.151Z,99661.00
2022-10-02T05:21:09.311Z,99676.78
2022-10-02T05:23:50.545Z,99676.19
2022-10-02T05:26:37.950Z,99679.69
2022-10-02T05:29:13.685Z,99675.22
2022-10-02T05:32:04.306Z,99673.84
2022-10-02T05:34:55.177Z,99685.00
2022-10-02T05:37:34.492Z,99680.66
2022-10-02T05:40:19.569Z,99692.00
2022-10-02T05:42:53.221Z,99695.47
2022-10-02T05:45:33.582Z,99696.31
2022-10-02T05:48:12.190Z,99698.28
2022-10-02T05:50:38.576Z,99693.94
2022-10-02T05:53:22.531Z,99693.94
2022-10-02T05:55:58.839Z,99684.56
2022-10-02T05:58:33.778Z,99692.97
2022-10-02T06:01:07.124Z,99688.78
2022-10-02T06:04:03.312Z,99678.28
2022-10-02T06:06:40.168Z,99688.47
2022-10-02T06:09:25.493Z,99687.50
2022-10-02T06:12:01.804Z,99688.47
2022-10-02T06:14:36.286Z,99686.13
2022-10-02T06:17:08.933Z,99688.78
2022-10-02T06:19:42.912Z,99698.38
2022-10-02T06:22:18.740Z,99703.56
2022-10-02T06:24:55.388Z,99715.16
2022-10-02T06:27:55.633Z,99708.03
2022-10-02T06:30:22.216Z,99705.66
2022-10-02T06:32:55.302Z,99709.84
2022-10-02T06:35:48.149Z,99702.72
2022-10-02T06:38:35.867Z,99706.22
2022-10-02T06:41:24.852Z,99708.88
2022-10-02T06:44:22.373Z,99709.13
2022-10-02T06:47:17.038Z,99715.97
2022-10-02T06:50:03.747Z,99717.81
2022-10-02T06:52:55.264Z,99719.34
2022-10-02T06:55:36.763Z,99716.84
2022-10-02T06:58:08.819Z,99720.06
2022-10-02T07:00:49.934Z,99721.88
2022-10-02T07:03:32.859Z,99717.53
2022-10-02T07:06:11.399Z,99722.84
2022-10-02T07:08:59.221Z,99717.41
2022-10-02T07:11:50.431Z,99728.00
2022-10-02T07:14:31.808Z,99726.22
2022-10-02T07:17:20.355Z,99722.69
2022-10-02T07:20:13.872Z,99723.56
2022-10-02T07:22:59.162Z,99735.72
2022-10-02T07:25:25.491Z,99727.75
2022-10-02T07:28:06.131Z,99739.19
2022-10-02T07:31:06.996Z,99746.88
2022-10-02T07:34:06.395Z,99741.59
2022-10-02T07:36:59.165Z,99732.78
2022-10-02T07:39:35.216Z,99740.59
2022-10-02T07:42:16.752Z,99752.75
2022-10-02T07:44:52.204Z,99750.25
2022-10-02T07:47:48.155Z,99754.31
2022-10-02T07:50:51.824Z,99750.81
2022-10-02T07:53:49.606Z,99757.81
2022-10-02T07:56:20.683Z,99761.44
2022-10-02T07:59:12.012Z,99763.69
2022-10-02T08:01:41.439Z,99763.81
2022-10-02T08:04:17.257Z,99770.66
2022-10-02T08:06:46.957Z,99772.50
2022-10-02T08:09:23.285Z,99773.06
2022-10-02T08:11:56.721Z,99763.81
2022-10-02T08:14:31.707Z,99767.91
2022-10-02T08:17:06.656Z,99763.69
2022-10-02T08:19:39.466Z,99767.75
2022-10-02T08:22:47.357Z,99766.94
2022-10-02T08:25:27.592Z,99766.94
2022-10-02T08:28:11.290Z,99764.13
2022-10-02T08:30:38.069Z,99765.91
2022-10-02T08:33:22.207Z,99781.47
2022-10-02T08:36:38.661Z,99773.50
2022-10-02T08:39:25.721Z,99778.81
2022-10-02T08:42:10.390Z,99778.66
2022-10-02T08:44:58.804Z,99777.81
2022-10-02T08:47:48.142Z,99777.81
2022-10-02T08:50:33.747Z,99776.84
2022-10-02T08:53:40.578Z,99782.88
2022-10-02T08:56:37.670Z,99768.88
2022-10-02T08:59:43.747Z,99774.78
2022-10-02T09:02:46.549Z,99773.94
2022-10-02T09:05:39.364Z,99773.94
2022-10-02T09:08:27.427Z,99783.56
2022-10-02T09:11:09.048Z,99779.25
2022-10-02T09:14:19.811Z,99781.88
2022-10-02T09:17:17.605Z,99776.59
2022-10-02T09:20:15.493Z,99782.59
2022-10-02T09:23:17.236Z,99776.31
2022-10-02T09:25:53.534Z,99778.97
2022-10-02T09:29:02.062Z,99762.34
2022-10-02T09:32:04.716Z,99776.06
2022-10-02T09:34:50.916Z,99770.75
2022-10-02T09:37:52.308Z,99766.16
2022-10-02T09:40:46.717Z,99769.63
2022-10-02T09:43:38.890Z,99759.16
2022-10-02T09:46:27.038Z,99765.88
2022-10-02T09:49:32.003Z,99760.44
2022-10-02T09:52:37.224Z,99760.28
2022-10-02T09:55:53.309Z,99756.66
2022-10-02T09:58:56.462Z,99762.69
2022-10-02T10:01:51.863Z,99764.38
2022-10-02T10:04:54.073Z,99759.75
2022-10-02T10:07:49.160Z,99759.47
2022-10-02T10:11:11.105Z,99767.31
2022-10-02T10:13:50.725Z,99757.78
2022-10-02T10:16:32.087Z,99769.81
2022-10-02T10:19:22.162Z,99758.50
2022-10-02T10:22:08.116Z,99750.81
2022-10-02T10:24:56.270Z,99759.19
2022-10-02T10:27:43.024Z,99757.53
2022-10-02T10:30:50.213Z,99774.44
2022-10-02T10:33:53.871Z,99770.81
2022-10-02T10:36:46.810Z,99782.97
2022-10-02T10:39:43.865Z,99789.72
2022-10-02T10:42:37.775Z,99805.38
2022-10-02T10:45:40.636Z,99801.44
2022-10-02T10:48:33.697Z,99812.06
2022-10-02T10:51:35.217Z,99813.75
2022-10-02T10:54:25.988Z,99817.38
2022-10-02T10:57:04.220Z,99808.03
2022-10-02T11:00:03.440Z,99808.44
2022-10-02T11:03:04.495Z,99807.31
2022-10-02T11:05:56.858Z,99816.13
2022-10-02T11:08:55.336Z,99817.94
2022-10-02T11:11:27.784Z,99820.75
2022-10-02T11:14:05.543Z,99825.66
2022-10-02T11:17:10.733Z,99830.66
2022-10-02T11:19:43.027Z,99829.00
2022-10-02T11:22:21.762Z,99831.66
2022-10-02T11:25:16.260Z,99821.16
2022-10-02T11:28:01.246Z,99829.97
2022-10-02T11:30:53.674Z,99815.59
2022-10-02T11:33:44.211Z,99824.13
2022-10-02T11:36:42.523Z,99821.03
2022-10-02T11:39:41.168Z,99823.28
2022-10-02T11:42:42.655Z,99837.84
2022-10-02T11:45:15.279Z,99838.69
2022-10-02T11:48:11.936Z,99835.06
2022-10-02T11:51:10.346Z,99826.38
2022-10-02T11:54:03.599Z,99837.00
2022-10-02T11:57:01.591Z,99830.28
2022-10-02T12:00:07.593Z,99832.66
2022-10-02T12:02:45.038Z,99834.63
2022-10-02T12:05:17.633Z,99824.97
2022-10-02T12:07:58.328Z,99833.78
2022-10-02T12:10:55.258Z,99835.31
2022-10-02T12:13:24.546Z,99841.63
2022-10-02T12:16:05.803Z,99844.97
2022-10-02T12:18:39.674Z,99842.31
2022-10-02T12:21:44.191Z,99818.28
2022-10-02T12:24:38.249Z,99822.31
2022-10-02T12:27:15.609Z,99828.91
2022-10-02T12:30:01.179Z,99827.78
2022-10-02T12:32:40.853Z,99831.56
2022-10-02T12:35:25.020Z,99828.19
2022-10-02T12:38:09.563Z,99823.00
2022-10-02T12:40:52.554Z,99820.22
2022-10-02T12:43:56.333Z,99823.69
2022-10-02T12:47:00.596Z,99815.47
2022-10-02T12:49:59.317Z,99820.38
2022-10-02T12:52:48.735Z,99827.22
2022-10-02T12:55:52.153Z,99819.84
2022-10-02T12:58:31.258Z,99836.63
2022-10-02T13:01:12.862Z,99830.47
2022-10-02T13:04:04.120Z,99836.63
2022-10-02T13:06:55.356Z,99830.47
2022-10-02T13:09:30.115Z,99829.75
2022-10-02T13:12:38.169Z,99834.53
2022-10-02T13:15:37.268Z,99837.88
2022-10-02T13:18:43.635Z,99843.19
2022-10-02T13:21:30.742Z,99839.72
2022-10-02T13:24:30.632Z,99834.81
2022-10-02T13:27:16.884Z,99846.00
2022-10-02T13:29:51.814Z,99836.75
2022-10-02T13:32:36.549Z,99855.94
2022-10-02T13:35:16.308Z,99856.09
2022-10-02T13:38:22.740Z,99851.44
2022-10-02T13:41:33.884Z,99851.31
2022-10-02T13:44:38.292Z,99848.78
2022-10-02T13:47:35.973Z,99842.50
2022-10-02T13:50:29.787Z,99841.25
2022-10-02T13:53:04.180Z,99836.22
2022-10-02T13:55:47.440Z,99835.94
2022-10-02T13:58:29.010Z,99835.66
2022-10-02T14:01:06.469Z,99838.19
2022-10-02T14:03:44.562Z,99830.34
2022-10-02T14:06:27.919Z,99838.44
2022-10-02T14:09:11.575Z,99848.81
2022-10-02T14:11:56.682Z,99848.25
2022-10-02T14:14:40.145Z,99835.13
2022-10-02T14:17:38.473Z,99853.56
2022-10-02T14:20:50.664Z,99848.25
2022-10-02T14:23:43.616Z,99839.72
2022-10-02T14:26:32.546Z,99859.72
2022-10-02T14:29:18.016Z,99855.41
2022-10-02T14:32:05.112Z,99847.53
2022-10-02T14:35:14.271Z,99857.19
2022-10-02T14:38:07.093Z,99856.63
2022-10-02T14:40:58.095Z,99858.44
2022-10-02T14:43:51.500Z,99862.06
2022-10-02T14:46:36.485Z,99867.38
2022-10-02T14:49:18.019Z,99872.03
2022-10-02T14:52:07.816Z,99860.41
2022-10-02T14:54:52.655Z,99869.47
2022-10-02T14:57:36.390Z,99856.31
2022-10-02T15:00:14.593Z,99866.94
2022-10-02T15:02:53.103Z,99867.91
2022-10-02T15:05:46.995Z,99867.06
2022-10-02T15:08:35.153Z,99866.50
2022-10-02T15:11:04.632Z,99862.44
2022-10-02T15:13:57.774Z,99875.44
2022-10-02T15:17:04.087Z,99868.59
2022-10-02T15:19:39.605Z,99863.53
2022-10-02T15:22:21.915Z,99864.41
2022-10-02T15:24:57.821Z,99868.16
2022-10-02T15:27:38.669Z,99875.28
2022-10-02T15:30:21.165Z,99873.59
2022-10-02T15:33:11.281Z,99873.88
2022-10-02T15:35:43.858Z,99876.81
2022-10-02T15:38:44.374Z,99883.94
2022-10-02T15:41:41.945Z,99884.06
2022-10-02T15:44:49.936Z,99892.16
2022-10-02T15:48:01.623Z,99899.41
2022-10-02T15:50:34.151Z,99896.91
2022-10-02T15:53:36.696Z,99890.75
2022-10-02T15:56:25.147Z,99904.03
2022-10-02T15:59:16.339Z,99904.16
2022-10-02T16:01:55.568Z,99903.44
2022-10-02T16:04:48.637Z,99917.13
2022-10-02T16:07:35.507Z,99915.44
2022-10-02T16:10:15.326Z,99920.75
2022-10-02T16:13:02.850Z,99923.41
2022-10-02T16:15:45.646Z,99927.19
2022-10-02T16:18:20.809Z,99933.47
2022-10-02T16:21:16.568Z,99935.28
2022-10-02T16:23:57.502Z,99930.34
2022-10-02T16:26:56.761Z,99942.53
2022-10-02T16:29:55.718Z,99928.69
2022-10-02T16:32:48.883Z,99935.09
2022-10-02T16:35:54.054Z,99943.91
2022-10-02T16:38:50.476Z,99941.75
2022-10-02T16:41:38.232Z,99936.44
2022-10-02T16:44:38.841Z,99948.63
2022-10-02T16:47:05.160Z,99951.16
2022-10-02T16:49:52.022Z,99956.72
2022-10-02T16:52:29.296Z,99950.50
2022-10-02T16:55:14.113Z,99960.66
2022-10-02T16:57:45.313Z,99983.81
2022-10-02T17:00:43.937Z,99983.81
2022-10-02T17:03:21.297Z,99987.09
2022-10-02T17:05:47.716Z,99989.03
2022-10-02T17:08:31.112Z,99987.34
2022-10-02T17:11:19.167Z,99985.81
2022-10-02T17:14:14.650Z,99990.25
2022-10-02T17:16:50.302Z,99999.44
2022-10-02T17:19:33.388Z,99999.56
2022-10-02T17:22:11.456Z,100003.44
2022-10-02T17:24:47.025Z,100010.47
2022-10-02T17:27:32.045Z,100015.16
2022-10-02T17:30:18.768Z,100023.97
2022-10-02T17:32:48.870Z,100036.50
2022-10-02T17:35:31.596Z,100036.03
2022-10-02T17:38:33.140Z,100029.28
2022-10-02T17:41:11.754Z,100052.47
2022-10-02T17:44:05.875Z,100055.47
2022-10-02T17:47:07.923Z,100060.91
2022-10-02T17:49:52.235Z,100071.03
2022-10-02T17:53:16.584Z,100071.03
2022-10-02T17:56:29.626Z,100084.81
2022-10-02T17:59:11.229Z,100088.19
2022-10-02T18:01:54.457Z,100088.56
2022-10-02T18:04:32.120Z,100104.59
2022-10-02T18:07:32.307Z,100105.06
2022-10-02T18:10:10.935Z,100106.41
2022-10-02T18:12:58.913Z,100108.19
2022-10-02T18:15:36.148Z,100114.72
2022-10-02T18:18:24.164Z,100123.75
2022-10-02T18:21:07.270Z,100126.16
2022-10-02T18:23:52.561Z,100137.88
2022-10-02T18:26:33.690Z,100148.72
2022-10-02T18:29:39.399Z,100149.19
2022-10-02T18:32:26.763Z,100153.53
2022-10-02T18:35:14.158Z,100149.66
2022-10-02T18:37:50.161Z,100149.41
2022-10-02T18:40:33.531Z,100162.03
2022-10-02T18:43:11.029Z,100162.03
2022-10-02T18:45:55.863Z,100163.63
2022-10-02T18:48:42.847Z,100155.41
2022-10-02T18:51:24.380Z,100160.25
2022-10-02T18:53:53.737Z,100158.97
2022-10-02T18:56:48.685Z,100160.41
2022-10-02T18:59:17.988Z,100158.06
2022-10-02T19:02:14.186Z,100159.78
2022-10-02T19:04:50.011Z,100160.41
2022-10-02T19:07:43.439Z,100155.94
2022-10-02T19:10:40.123Z,100164.03
2022-10-02T19:13:16.451Z,100168.59
2022-10-02T19:15:46.491Z,100172.72
2022-10-02T19:18:25.259Z,100175.69
2022-10-02T19:21:06.857Z,100187.03
2022-10-02T19:23:53.453Z,100196.66
2022-10-02T19:26:25.914Z,100194.03
2022-10-02T19:28:58.705Z,100192.31
2022-10-02T19:31:27.319Z,100202.09
2022-10-02T19:34:02.067Z,100205.59
2022-10-02T19:36:33.599Z,100203.91
2022-10-02T19:39:07.614Z,100209.19
2022-10-02T19:41:41.804Z,100204.22
2022-10-02T19:44:17.817Z,100208.38
2022-10-02T19:46:48.835Z,100215.22
2022-10-02T19:49:22.940Z,100208.97
2022-10-02T19:51:50.811Z,100212.34
2022-10-02T19:54:26.837Z,100228.84
2022-10-02T19:57:07.672Z,100236.94
2022-10-02T19:59:42.893Z,100241.16
2022-10-02T20:02:21.762Z,100240.31
2022-10-02T20:04:50.997Z,100228.25
2022-10-02T20:07:20.288Z,100233.19
2022-10-02T20:09:58.320Z,100236.72
2022-10-02T20:12:30.865Z,100233.44
2022-10-02T20:15:08.468Z,100235.72
2022-10-02T20:17:37.037Z,100233.31
2022-10-02T20:20:07.816Z,100241.75
2022-10-02T20:22:51.500Z,100245.63
2022-10-02T20:25:26.418Z,100259.47
2022-10-02T20:28:00.076Z,100259.47
2022-10-02T20:30:35.616Z,100260.31
2022-10-02T20:33:28.984Z,100271.88
2022-10-02T20:36:08.023Z,100270.91
2022-10-02T20:38:39.107Z,100267.53
2022-10-02T20:41:18.473Z,100278.03
2022-10-02T20:44:02.268Z,100269.97
2022-10-02T20:46:51.532Z,100271.88
2022-10-02T20:49:52.635Z,100280.78
2022-10-02T20:52:50.517Z,100292.41
2022-10-02T20:55:33.317Z,100292.41
2022-10-02T20:58:02.673Z,100297.94
2022-10-02T21:00:50.528Z,100293.34
2022-10-02T21:03:26.071Z,100296.00
2022-10-02T21:06:07.627Z,100299.34
2022-10-02T21:09:01.976Z,100302.00
2022-10-02T21:11:56.331Z,100299.25
2022-10-02T21:14:43.389Z,100310.97
2022-10-02T21:17:51.020Z,100300.34
2022-10-02T21:20:33.213Z,100298.41
2022-10-02T21:23:45.879Z,100305.41
2022-10-02T21:26:31.485Z,100314.56
2022-10-02T21:29:25.127Z,100320.56
2022-10-02T21:32:11.409Z,100327.69
2022-10-02T21:34:58.705Z,100328.28
2022-10-02T21:38:00.066Z,100332.41
2022-10-02T21:40:50.817Z,100336.34
2022-10-02T21:43:37.831Z,100344.00
2022-10-02T21:46:06.972Z,100354.00
2022-10-02T21:49:04.850Z,100358.34
2022-10-02T21:51:53.424Z,100353.25
2022-10-02T21:54:57.454Z,100367.38
2022-10-02T21:58:01.015Z,100369.16
2022-10-02T22:00:28.975Z,100371.41
2022-10-02T22:03:23.304Z,100384.28
2022-10-02T22:06:21.179Z,100387.66
2022-10-02T22:09:15.404Z,100384.53
2022-10-02T22:11:57.355Z,100385.09
2022-10-02T22:14:36.756Z,100381.53
2022-10-02T22:17:10.401Z,100399.00
2022-10-02T22:19:53.824Z,100403.78
2022-10-02T22:22:57.499Z,100396.91
2022-10-02T22:25:33.136Z,100406.69
2022-10-02T22:28:09.739Z,100409.66
2022-10-02T22:30:59.015Z,100405.72
2022-10-02T22:33:43.491Z,100400.88
2022-10-02T22:36:39.678Z,100415.28
2022-10-02T22:39:15.073Z,100412.88
2022-10-02T22:42:02.813Z,100408.28
2022-10-02T22:44:49.472Z,100410.22
2022-10-02T22:47:29.979Z,100414.06
2022-10-02T22:50:03.074Z,100417.78
2022-10-02T22:52:48.536Z,100428.25
2022-10-02T22:55:23.929Z,100437.16
2022-10-02T22:58:00.247Z,100448.09
2022-10-02T23:00:32.618Z,100443.94
2022-10-02T23:03:08.189Z,100452.84
2022-10-02T23:05:46.552Z,100447.34
2022-10-02T23:08:28.090Z,100450.31
2022-10-02T23:11:10.333Z,100462.41
2022-10-02T23:13:45.344Z,100455.75
2022-10-02T23:16:33.830Z,100452.16
2022-10-02T23:19:00.193Z,100459.06
2022-10-02T23:21:46.101Z,100462.53
2022-10-02T23:24:12.613Z,100463.69
2022-10-02T23:26:43.109Z,100461.59
2022-10-02T23:29:35.885Z,100462.53
2022-10-02T23:32:39.936Z,100456.31
2022-10-02T23:35:25.537Z,100469.00
2022-10-02T23:38:14.913Z,100460.97
2022-10-02T23:41:21.521Z,100471.34
2022-10-02T23:44:08.585Z,100465.41
2022-10-02T23:46:59.459Z,100474.84
2022-10-02T23:49:33.810Z,100479.38
2022-10-02T23:52:24.816Z,100485.53
2022-10-02T23:55:17.238Z,100479.38
2022-10-02T23:57:49.509Z,100472.28
